createdAt,value
2018-10-11T00:00:43.760Z,33.17
2018-10-11T00:03:16.614Z,32.03
2018-10-11T00:05:45.122Z,36.43
2018-10-11T00:08:15.644Z,34.60
2018-10-11T00:10:44.056Z,33.03
2018-10-11T00:13:17.036Z,33.50
2018-10-11T00:15:48.839Z,32.83
2018-10-11T00:46:49.530Z,37.40
2018-10-11T00:49:18.246Z,38.07
2018-10-11T00:51:46.880Z,34.17
2018-10-11T00:54:18.664Z,35.00
2018-10-11T00:56:51.308Z,39.13
2018-10-11T00:59:26.478Z,34.40
2018-10-11T01:02:00.686Z,39.30
2018-10-11T01:04:39.507Z,35.73
2018-10-11T01:07:07.899Z,34.50
2018-10-11T01:09:36.607Z,37.60
2018-10-11T01:12:10.516Z,35.87
2018-10-11T01:14:41.003Z,35.00
2018-10-11T01:17:13.391Z,38.23
2018-10-11T01:19:42.057Z,40.00
2018-10-11T01:22:16.348Z,35.60
2018-10-11T01:24:46.859Z,35.60
2018-10-11T01:27:15.576Z,41.70
2018-10-11T01:29:47.641Z,37.53
2018-10-11T01:32:21.800Z,36.40
2018-10-11T01:35:08.611Z,39.47
2018-10-11T01:37:42.033Z,44.10
2018-10-11T01:40:13.632Z,42.73
2018-10-11T01:42:45.458Z,41.77
2018-10-11T01:45:14.110Z,44.13
2018-10-11T01:47:43.786Z,40.57
2018-10-11T01:50:16.819Z,43.10
2018-10-11T01:52:45.950Z,42.17
2018-10-11T01:55:22.367Z,40.30
2018-10-11T01:57:50.841Z,43.13
2018-10-11T02:00:19.829Z,40.40
2018-10-11T02:02:48.838Z,39.00
2018-10-11T02:05:18.441Z,40.47
2018-10-11T02:07:47.035Z,42.47
2018-10-11T02:10:15.437Z,45.93
2018-10-11T02:14:32.234Z,36.70
2018-10-11T02:17:01.921Z,43.47
2018-10-11T02:19:30.553Z,41.90
2018-10-11T02:22:01.061Z,44.23
2018-10-11T02:24:33.135Z,40.77
2018-10-11T02:27:07.363Z,39.17
2018-10-11T02:29:41.294Z,37.87
2018-10-11T02:32:19.463Z,40.87
2018-10-11T02:34:50.914Z,42.53
2018-10-11T02:37:20.520Z,40.87
2018-10-11T02:39:53.431Z,40.67
2018-10-11T02:42:28.258Z,39.73
2018-10-11T02:44:56.722Z,44.13
2018-10-11T02:47:36.180Z,38.83
2018-10-11T02:50:08.839Z,40.97
2018-10-11T02:52:39.412Z,45.17
2018-10-11T02:55:08.772Z,41.77
2018-10-11T02:57:48.685Z,38.93
2018-10-11T03:00:17.280Z,50.57
2018-10-11T03:02:52.522Z,42.57
2018-10-11T03:05:27.140Z,42.33
2018-10-11T03:07:57.170Z,43.03
2018-10-11T03:10:26.693Z,38.87
2018-10-11T03:12:55.807Z,44.00
2018-10-11T03:15:26.365Z,37.57
2018-10-11T03:17:55.162Z,41.50
2018-10-11T03:20:23.985Z,42.17
2018-10-11T03:22:52.614Z,45.87
2018-10-11T03:25:21.185Z,44.37
2018-10-11T03:27:49.613Z,40.63
2018-10-11T03:30:18.327Z,42.63
2018-10-11T03:32:47.876Z,44.13
2018-10-11T03:35:18.480Z,40.30
2018-10-11T03:37:47.090Z,45.80
2018-10-11T03:40:15.774Z,44.03
2018-10-11T03:42:46.291Z,41.57
2018-10-11T03:45:16.859Z,44.33
2018-10-11T03:47:51.089Z,43.93
2018-10-11T03:50:19.741Z,45.83
2018-10-11T03:52:48.426Z,41.73
2018-10-11T03:55:18.124Z,45.73
2018-10-11T03:57:48.554Z,41.27
2018-10-11T04:00:20.698Z,40.07
2018-10-11T04:02:49.354Z,45.07
2018-10-11T04:05:21.123Z,46.03
2018-10-11T04:07:49.812Z,45.57
2018-10-11T04:10:25.794Z,39.43
2018-10-11T04:12:55.684Z,39.23
2018-10-11T04:15:25.840Z,39.33
2018-10-11T04:17:54.502Z,39.80
2018-10-11T04:20:23.466Z,42.87
2018-10-11T04:22:54.305Z,38.43
2018-10-11T04:25:22.849Z,39.97
2018-10-11T04:27:51.274Z,42.17
2018-10-11T04:30:21.837Z,40.70
2018-10-11T04:32:50.564Z,39.50
2018-10-11T04:35:19.779Z,43.27
2018-10-11T04:37:48.806Z,42.10
2018-10-11T04:40:17.787Z,41.53
2018-10-11T04:42:46.768Z,41.60
2018-10-11T04:45:17.252Z,40.93
2018-10-11T04:47:45.791Z,37.50
2018-10-11T04:50:14.573Z,38.63
2018-10-11T04:52:43.269Z,40.30
2018-10-11T04:55:12.297Z,38.60
2018-10-11T04:57:42.264Z,40.33
2018-10-11T05:00:11.189Z,39.27
2018-10-11T05:02:43.875Z,40.23
2018-10-11T05:05:15.530Z,39.83
2018-10-11T05:07:44.173Z,36.73
2018-10-11T05:10:12.930Z,40.30
2018-10-11T05:12:41.534Z,38.03
2018-10-11T05:15:10.152Z,37.53
2018-10-11T05:17:39.064Z,35.73
2018-10-11T05:20:07.910Z,38.63
2018-10-11T05:22:36.734Z,39.87
2018-10-11T05:25:05.560Z,37.57
2018-10-11T05:27:34.564Z,37.87
2018-10-11T05:30:12.269Z,38.07
2018-10-11T05:32:41.098Z,38.80
2018-10-11T05:35:10.882Z,34.07
2018-10-11T05:37:39.445Z,37.43
2018-10-11T05:40:08.254Z,41.30
2018-10-11T05:42:37.206Z,40.23
2018-10-11T05:45:12.615Z,41.90
2018-10-11T05:47:41.903Z,38.13
2018-10-11T05:50:10.950Z,40.67
2018-10-11T05:52:39.722Z,34.63
2018-10-11T05:55:08.378Z,34.97
2018-10-11T05:57:40.616Z,36.53
2018-10-11T06:00:10.496Z,35.40
2018-10-11T06:02:51.664Z,36.27
2018-10-11T06:05:20.304Z,37.80
2018-10-11T06:07:49.132Z,44.60
2018-10-11T06:10:19.296Z,41.07
2018-10-11T06:12:49.466Z,39.17
2018-10-11T06:15:18.472Z,38.93
2018-10-11T06:17:52.127Z,37.63
2018-10-11T06:20:21.479Z,38.60
2018-10-11T06:22:50.761Z,37.53
2018-10-11T06:25:23.907Z,36.63
2018-10-11T06:27:53.219Z,36.23
2018-10-11T06:30:22.665Z,37.73
2018-10-11T06:32:54.683Z,34.33
2018-10-11T06:35:24.442Z,32.50
2018-10-11T06:37:54.395Z,36.00
2018-10-11T06:40:23.851Z,37.37
2018-10-11T06:42:57.515Z,36.00
2018-10-11T06:45:27.632Z,31.13
2018-10-11T06:47:59.971Z,28.40
2018-10-11T06:50:30.368Z,29.20
2018-10-11T06:52:59.585Z,30.70
2018-10-11T06:55:29.541Z,29.93
2018-10-11T06:58:00.559Z,32.60
2018-10-11T07:00:30.765Z,32.90
2018-10-11T07:03:01.851Z,29.07
2018-10-11T07:05:30.981Z,30.33
2018-10-11T07:08:00.893Z,31.80
2018-10-11T07:10:31.092Z,32.03
2018-10-11T07:13:01.943Z,36.43
2018-10-11T07:15:32.724Z,30.87
2018-10-11T07:18:01.659Z,32.93
2018-10-11T07:20:30.457Z,30.07
2018-10-11T07:23:01.006Z,35.23
2018-10-11T07:25:31.097Z,35.37
2018-10-11T07:28:00.057Z,29.63
2018-10-11T07:30:29.079Z,32.67
2018-10-11T07:32:58.155Z,34.13
2018-10-11T07:35:28.473Z,31.97
2018-10-11T07:38:06.163Z,33.20
2018-10-11T07:40:40.410Z,36.53
2018-10-11T07:43:09.271Z,36.47
2018-10-11T07:45:50.505Z,34.87
2018-10-11T07:48:31.115Z,34.43
2018-10-11T07:51:00.034Z,30.33
2018-10-11T07:53:28.841Z,29.93
2018-10-11T07:55:57.715Z,30.00
2018-10-11T07:58:36.529Z,30.83
2018-10-11T08:01:05.733Z,31.60
2018-10-11T08:03:42.729Z,34.27
2018-10-11T08:06:17.095Z,35.90
2018-10-11T08:08:47.020Z,29.73
2018-10-11T08:11:17.119Z,33.20
2018-10-11T08:13:48.037Z,28.03
2018-10-11T08:16:18.893Z,28.73
2018-10-11T08:18:48.827Z,33.27
2018-10-11T08:21:19.630Z,23.97
2018-10-11T08:23:48.581Z,25.87
2018-10-11T08:26:19.169Z,29.97
2018-10-11T08:28:47.989Z,25.57
2018-10-11T08:31:17.507Z,24.30
2018-10-11T08:33:46.540Z,28.00
2018-10-11T08:36:16.950Z,25.60
2018-10-11T08:38:47.003Z,22.37
2018-10-11T08:41:16.857Z,24.27
2018-10-11T08:43:47.005Z,21.87
2018-10-11T08:46:17.403Z,25.03
2018-10-11T08:48:48.009Z,21.20
2018-10-11T08:51:17.866Z,20.47
2018-10-11T08:53:47.775Z,20.40
2018-10-11T08:56:18.055Z,23.03
2018-10-11T08:58:48.159Z,19.17
2018-10-11T09:01:18.587Z,19.23
2018-10-11T09:03:48.875Z,18.33
2018-10-11T09:06:20.054Z,17.07
2018-10-11T09:08:50.733Z,15.53
2018-10-11T09:11:20.861Z,16.23
2018-10-11T09:13:51.369Z,15.40
2018-10-11T09:16:22.101Z,15.43
2018-10-11T09:18:53.554Z,16.83
2018-10-11T09:21:25.136Z,14.93
2018-10-11T09:23:54.721Z,12.40
2018-10-11T09:29:06.744Z,16.63
2018-10-11T09:31:36.984Z,15.33
2018-10-11T09:34:08.064Z,13.30
2018-10-11T09:36:37.737Z,14.10
2018-10-11T09:39:09.680Z,17.37
2018-10-11T09:41:39.817Z,17.43
2018-10-11T09:44:10.695Z,16.50
2018-10-11T09:46:40.008Z,17.83
2018-10-11T09:49:09.297Z,15.53
2018-10-11T09:51:38.724Z,14.93
2018-10-11T09:54:07.817Z,13.50
2018-10-11T09:57:42.237Z,17.93
2018-10-11T10:00:22.338Z,15.73
2018-10-11T10:05:34.498Z,16.83
2018-10-11T10:08:03.849Z,17.37
2018-10-11T10:10:33.295Z,14.03
2018-10-11T10:13:10.571Z,15.10
2018-10-11T10:15:42.620Z,16.40
2018-10-11T10:18:12.993Z,14.17
2018-10-11T10:20:43.202Z,17.93
2018-10-11T10:23:13.529Z,15.03
2018-10-11T10:25:43.783Z,13.10
2018-10-11T10:28:13.734Z,13.33
2018-10-11T10:30:52.332Z,15.00
2018-10-11T10:33:25.585Z,11.03
2018-10-11T10:35:56.395Z,14.33
2018-10-11T10:38:30.589Z,11.53
2018-10-11T10:40:59.706Z,11.57
2018-10-11T10:43:35.256Z,13.17
2018-10-11T10:46:04.284Z,10.03
2018-10-11T10:48:35.114Z,12.47
2018-10-11T10:51:05.119Z,15.27
2018-10-11T10:53:34.236Z,16.63
2018-10-11T10:56:03.404Z,10.77
2018-10-11T10:58:32.216Z,11.23
2018-10-11T11:01:02.242Z,11.97
2018-10-11T11:03:31.122Z,12.23
2018-10-11T11:06:00.272Z,12.57
2018-10-11T11:08:29.218Z,11.43
2018-10-11T11:11:00.545Z,7.73
2018-10-11T11:13:29.872Z,7.00
2018-10-11T11:15:59.055Z,13.03
2018-10-11T11:18:38.018Z,9.23
2018-10-11T11:21:09.461Z,10.17
2018-10-11T11:23:42.759Z,11.10
2018-10-11T11:26:16.925Z,8.70
2018-10-11T11:28:46.933Z,10.53
2018-10-11T11:31:16.089Z,8.70
2018-10-11T11:33:45.888Z,10.10
2018-10-11T11:36:21.597Z,8.03
2018-10-11T11:38:50.666Z,7.27
2018-10-11T11:41:19.618Z,7.13
2018-10-11T11:43:49.600Z,8.83
2018-10-11T11:46:18.689Z,9.70
2018-10-11T11:48:49.004Z,8.10
2018-10-11T11:51:21.300Z,8.57
2018-10-11T11:53:54.162Z,7.33
2018-10-11T11:56:23.158Z,8.17
2018-10-11T11:58:55.386Z,8.80
2018-10-11T12:01:24.519Z,8.87
2018-10-11T12:03:53.506Z,10.40
2018-10-11T12:06:25.559Z,9.70
2018-10-11T12:08:58.385Z,7.50
2018-10-11T12:11:28.618Z,15.00
2018-10-11T12:13:58.732Z,31.27
2018-10-11T12:16:28.619Z,8.07
2018-10-11T12:18:57.583Z,8.13
2018-10-11T12:21:26.493Z,6.60
2018-10-11T12:23:55.439Z,9.00
2018-10-11T12:26:24.519Z,7.40
2018-10-11T12:28:53.553Z,7.50
2018-10-11T12:31:22.504Z,6.27
2018-10-11T12:33:51.606Z,4.50
2018-10-11T12:36:23.184Z,6.17
2018-10-11T12:38:54.535Z,5.87
2018-10-11T12:41:23.139Z,8.27
2018-10-11T12:43:52.185Z,5.77
2018-10-11T12:46:23.334Z,8.07
2018-10-11T12:48:52.286Z,6.00
2018-10-11T12:51:21.197Z,9.60
2018-10-11T12:53:50.211Z,6.17
2018-10-11T12:56:19.902Z,6.83
2018-10-11T12:58:48.856Z,8.07
2018-10-11T13:01:24.218Z,5.23
2018-10-11T13:03:55.863Z,6.53
2018-10-11T13:06:24.620Z,4.60
2018-10-11T13:08:57.488Z,5.60
2018-10-11T13:11:26.357Z,4.73
2018-10-11T13:14:02.967Z,6.30
2018-10-11T13:16:35.333Z,9.40
2018-10-11T13:19:07.283Z,4.47
2018-10-11T13:21:36.260Z,9.17
2018-10-11T13:24:05.561Z,3.97
2018-10-11T13:26:34.430Z,5.83
2018-10-11T13:29:15.301Z,6.90
2018-10-11T13:31:47.839Z,7.17
2018-10-11T13:34:17.002Z,4.83
2018-10-11T13:36:46.172Z,7.03
2018-10-11T13:39:15.130Z,7.00
2018-10-11T13:41:44.420Z,7.50
2018-10-11T13:44:17.778Z,5.30
2018-10-11T13:46:46.784Z,6.03
2018-10-11T13:49:15.762Z,5.40
2018-10-11T13:51:44.848Z,4.73
2018-10-11T13:54:16.556Z,4.37
2018-10-11T13:56:50.438Z,4.43
2018-10-11T13:59:16.578Z,4.83
2018-10-11T14:01:46.462Z,6.30
2018-10-11T14:04:16.461Z,4.47
2018-10-11T14:06:45.320Z,9.13
2018-10-11T14:09:15.467Z,6.33
2018-10-11T14:11:46.161Z,9.37
2018-10-11T14:14:14.807Z,7.53
2018-10-11T14:16:46.980Z,7.20
2018-10-11T14:19:16.467Z,5.77
2018-10-11T14:21:46.085Z,7.30
2018-10-11T14:24:18.419Z,10.47
2018-10-11T14:26:53.038Z,5.63
2018-10-11T14:29:24.847Z,6.20
2018-10-11T14:31:54.405Z,7.57
2018-10-11T14:34:25.331Z,6.77
2018-10-11T14:36:54.269Z,5.93
2018-10-11T14:39:28.292Z,5.37
2018-10-11T14:41:56.820Z,6.43
2018-10-11T14:44:27.406Z,8.67
2018-10-11T14:46:58.526Z,7.33
2018-10-11T14:49:35.447Z,7.97
2018-10-11T14:52:09.956Z,5.77
2018-10-11T14:54:39.599Z,7.57
2018-10-11T14:57:13.842Z,4.60
2018-10-11T14:59:42.612Z,9.93
2018-10-11T15:02:11.939Z,3.90
2018-10-11T15:04:40.483Z,6.17
2018-10-11T15:07:09.234Z,5.80
2018-10-11T15:09:38.057Z,5.80
2018-10-11T15:12:06.693Z,5.13
2018-10-11T15:14:35.379Z,7.13
2018-10-11T15:17:04.045Z,6.10
2018-10-11T15:19:32.574Z,7.30
2018-10-11T15:22:01.011Z,4.77
2018-10-11T15:24:31.534Z,3.87
2018-10-11T15:27:01.168Z,3.40
2018-10-11T15:29:33.613Z,3.60
2018-10-11T15:32:02.170Z,5.37
2018-10-11T15:34:33.926Z,3.40
2018-10-11T15:37:02.304Z,3.67
2018-10-11T15:39:31.962Z,8.33
2018-10-11T15:42:04.356Z,6.27
2018-10-11T15:44:33.044Z,5.57
2018-10-11T15:47:01.747Z,3.77
2018-10-11T15:49:30.635Z,4.00
2018-10-11T15:51:59.088Z,4.03
2018-10-11T15:54:27.813Z,4.97
2018-10-11T15:56:57.372Z,4.47
2018-10-11T15:59:27.942Z,4.17
2018-10-11T16:01:58.933Z,3.17
2018-10-11T16:04:27.759Z,7.50
2018-10-11T16:06:56.438Z,6.13
2018-10-11T16:09:25.121Z,9.47
2018-10-11T16:11:53.807Z,14.13
2018-10-11T16:14:22.443Z,6.90
2018-10-11T16:16:52.531Z,8.70
2018-10-11T16:19:21.446Z,5.93
2018-10-11T16:21:50.546Z,4.90
2018-10-11T16:24:21.613Z,3.67
2018-10-11T16:26:51.872Z,3.77
2018-10-11T16:29:23.307Z,6.03
2018-10-11T16:31:52.563Z,6.17
2018-10-11T16:34:24.059Z,6.07
2018-10-11T16:36:53.793Z,6.30
2018-10-11T16:39:24.925Z,5.70
2018-10-11T16:41:54.686Z,7.80
2018-10-11T16:44:27.915Z,6.67
2018-10-11T16:46:57.920Z,4.53
2018-10-11T16:49:29.362Z,3.37
2018-10-11T16:51:58.112Z,3.60
2018-10-11T16:54:28.084Z,3.60
2018-10-11T16:56:59.570Z,4.67
2018-10-11T16:59:29.137Z,5.47
2018-10-11T17:01:59.712Z,6.50
2018-10-11T17:04:29.750Z,4.37
2018-10-11T17:06:59.196Z,5.13
2018-10-11T17:09:28.537Z,7.43
2018-10-11T17:11:58.181Z,6.03
2018-10-11T17:14:27.903Z,7.30
2018-10-11T17:16:58.162Z,11.30
2018-10-11T17:19:29.200Z,3.50
2018-10-11T17:21:58.687Z,4.07
2018-10-11T17:24:30.418Z,6.30
2018-10-11T17:27:01.382Z,5.07
2018-10-11T17:29:31.187Z,5.00
2018-10-11T17:32:02.105Z,11.13
2018-10-11T17:34:31.341Z,8.63
2018-10-11T17:37:01.546Z,10.43
2018-10-11T17:39:31.901Z,5.33
2018-10-11T17:42:02.045Z,4.87
2018-10-11T17:44:32.203Z,8.17
2018-10-11T17:47:02.589Z,8.20
2018-10-11T17:49:32.543Z,8.73
2018-10-11T17:52:02.069Z,4.80
2018-10-11T17:54:33.359Z,5.07
2018-10-11T17:57:03.541Z,7.57
2018-10-11T17:59:34.400Z,13.13
2018-10-11T18:02:04.113Z,6.20
2018-10-11T18:04:33.551Z,5.47
2018-10-11T18:07:03.533Z,6.53
2018-10-11T18:09:32.796Z,6.03
2018-10-11T18:12:03.772Z,8.40
2018-10-11T18:14:34.137Z,6.50
2018-10-11T18:17:04.879Z,7.63
2018-10-11T18:19:36.153Z,5.73
2018-10-11T18:22:05.733Z,6.63
2018-10-11T18:24:36.078Z,7.03
2018-10-11T18:27:05.220Z,10.37
2018-10-11T18:29:34.774Z,7.60
2018-10-11T18:32:04.476Z,12.13
2018-10-11T18:34:34.381Z,13.97
2018-10-11T18:37:03.926Z,12.87
2018-10-11T18:39:33.916Z,20.10
2018-10-11T18:42:04.179Z,11.30
2018-10-11T18:44:33.997Z,8.57
2018-10-11T18:47:04.488Z,10.27
2018-10-11T18:49:34.594Z,10.37
2018-10-11T18:52:04.569Z,8.20
2018-10-11T18:54:36.123Z,10.37
2018-10-11T18:57:06.040Z,9.77
2018-10-11T18:59:35.324Z,12.90
2018-10-11T19:02:07.736Z,9.93
2018-10-11T19:04:38.007Z,10.23
2018-10-11T19:07:06.879Z,10.00
2018-10-11T19:09:38.826Z,11.43
2018-10-11T19:12:08.554Z,11.73
2018-10-11T19:14:38.675Z,9.00
2018-10-11T19:17:07.365Z,7.87
2018-10-11T19:19:37.210Z,10.73
2018-10-11T19:22:05.978Z,13.03
2018-10-11T19:24:35.646Z,7.67
2018-10-11T19:27:06.769Z,8.20
2018-10-11T19:29:36.921Z,7.77
2018-10-11T19:32:07.495Z,7.57
2018-10-11T19:34:44.889Z,7.73
2018-10-11T19:37:19.968Z,7.30
2018-10-11T19:39:54.592Z,7.53
2018-10-11T19:42:25.602Z,5.60
2018-10-11T19:44:55.226Z,9.80
2018-10-11T19:47:27.779Z,5.37
2018-10-11T19:49:58.072Z,11.70
2018-10-11T19:52:28.920Z,7.07
2018-10-11T19:55:00.488Z,8.07
2018-10-11T19:57:31.228Z,13.03
2018-10-11T20:00:00.472Z,10.60
2018-10-11T20:02:29.754Z,11.07
2018-10-11T20:05:02.216Z,12.73
2018-10-11T20:07:31.990Z,8.97
2018-10-11T20:10:03.669Z,10.23
2018-10-11T20:12:33.001Z,12.03
2018-10-11T20:15:02.554Z,8.47
2018-10-11T20:17:34.304Z,7.60
2018-10-11T20:22:46.365Z,9.53
2018-10-11T20:25:15.731Z,7.53
2018-10-11T20:27:44.437Z,9.50
2018-10-11T20:30:13.718Z,8.50
2018-10-11T20:32:44.135Z,9.80
2018-10-11T20:35:14.511Z,10.23
2018-10-11T20:37:43.363Z,8.80
2018-10-11T20:40:14.554Z,8.40
2018-10-11T20:42:46.107Z,9.77
2018-10-11T20:45:16.687Z,11.70
2018-10-11T20:47:49.199Z,7.90
2018-10-11T20:50:18.910Z,11.00
2018-10-11T20:52:49.679Z,8.00
2018-10-11T20:55:19.585Z,6.67
2018-10-11T20:57:49.419Z,8.77
2018-10-11T21:00:18.241Z,9.60
2018-10-11T21:02:46.859Z,8.27
2018-10-11T21:05:15.567Z,8.93
2018-10-11T21:07:44.302Z,11.53
2018-10-11T21:10:12.942Z,10.50
2018-10-11T21:12:41.651Z,9.47
2018-10-11T21:15:10.270Z,8.67
2018-10-11T21:17:40.247Z,9.90
2018-10-11T21:20:09.847Z,8.83
2018-10-11T21:22:38.708Z,11.07
2018-10-11T21:25:09.337Z,9.77
2018-10-11T21:27:41.275Z,11.50
2018-10-11T21:30:11.851Z,8.47
2018-10-11T21:32:40.473Z,10.77
2018-10-11T21:35:19.079Z,12.20
2018-10-11T21:37:51.368Z,11.13
2018-10-11T21:40:22.653Z,9.47
2018-10-11T21:42:53.062Z,11.47
2018-10-11T21:45:21.513Z,10.50
2018-10-11T21:47:50.155Z,10.17
2018-10-11T21:50:18.954Z,10.53
2018-10-11T21:52:47.739Z,11.43
2018-10-11T21:55:16.252Z,9.93
2018-10-11T21:57:45.322Z,9.87
2018-10-11T22:00:14.564Z,9.80
2018-10-11T22:02:43.678Z,13.40
2018-10-11T22:05:14.807Z,11.13
2018-10-11T22:07:43.872Z,9.67
2018-10-11T22:10:14.087Z,10.70
2018-10-11T22:12:43.794Z,11.37
2018-10-11T22:15:13.403Z,9.17
2018-10-11T22:17:49.446Z,10.40
2018-10-11T22:20:18.753Z,10.03
2018-10-11T22:22:50.779Z,10.83
2018-10-11T22:25:20.450Z,10.00
2018-10-11T22:27:52.788Z,11.83
2018-10-11T22:30:22.432Z,12.43
2018-10-11T22:32:51.116Z,10.80
2018-10-11T22:35:23.943Z,11.43
2018-10-11T22:37:57.623Z,9.73
2018-10-11T22:40:26.437Z,9.30
2018-10-11T22:42:55.517Z,9.87
2018-10-11T22:45:27.748Z,10.20
2018-10-11T22:47:57.500Z,9.90
2018-10-11T22:50:27.183Z,11.57
2018-10-11T22:52:57.258Z,11.10
2018-10-11T22:55:26.774Z,9.93
2018-10-11T22:57:55.869Z,9.90
2018-10-11T23:00:29.491Z,10.13
2018-10-11T23:02:58.065Z,13.07
2018-10-11T23:05:28.595Z,11.53
2018-10-11T23:07:57.274Z,8.63
2018-10-11T23:10:26.048Z,10.43
2018-10-11T23:12:54.748Z,12.77
2018-10-11T23:15:23.549Z,10.97
2018-10-11T23:17:52.347Z,11.23
2018-10-11T23:20:21.039Z,9.50
2018-10-11T23:22:50.751Z,10.90
2018-10-11T23:25:20.343Z,11.00
2018-10-11T23:27:48.920Z,7.00
2018-10-11T23:30:17.289Z,8.63
2018-10-11T23:32:47.048Z,8.10
2018-10-11T23:35:17.586Z,6.43
2018-10-11T23:37:46.250Z,6.90
2018-10-11T23:40:15.732Z,8.03
2018-10-11T23:42:45.402Z,7.63
2018-10-11T23:45:16.008Z,7.13
2018-10-11T23:47:44.582Z,6.57
2018-10-11T23:50:13.292Z,7.97
2018-10-11T23:52:41.958Z,9.80
2018-10-11T23:55:11.526Z,8.77
2018-10-11T23:57:41.169Z,6.20
